Time;durP1;ratioP1;P1;durP2;ratioP2;P2;SDS_P1;SDS_P2;PMS_P1;PMS_P2;Temp;Humidity;BMP_temperature;BMP_pressure;BME280_temperature;BME280_humidity;BME280_pressure;Samples;Min_cycle;Max_cycle;Signal;HPM_P1;HPM_P2
2022/03/18 00:00:25;;;;;;;45.95;28.65;;;;;;;6.53;100.00;96290.94;4997731;28;20404;-66
2022/03/18 00:02:57;;;;;;;49.03;28.63;;;;;;;6.52;100.00;96294.63;5014175;28;20022;-66
2022/03/18 00:05:28;;;;;;;48.35;30.08;;;;;;;6.52;100.00;96291.97;5015085;28;20040;-66
2022/03/18 00:07:57;;;;;;;44.65;28.98;;;;;;;6.52;100.00;96298.09;5014062;28;20025;-66
2022/03/18 00:10:26;;;;;;;45.95;27.95;;;;;;;6.51;100.00;96290.28;5015278;28;20113;-66
2022/03/18 00:12:52;;;;;;;46.75;28.95;;;;;;;6.50;100.00;96294.78;4997481;28;20025;-66
2022/03/18 00:15:19;;;;;;;47.80;29.33;;;;;;;6.49;100.00;96298.50;4998605;28;20076;-66
2022/03/18 00:17:47;;;;;;;46.42;28.35;;;;;;;6.49;100.00;96306.47;4978118;28;20062;-66
2022/03/18 00:20:13;;;;;;;46.05;28.90;;;;;;;6.50;100.00;96299.31;4978111;28;20026;-66
2022/03/18 00:22:43;;;;;;;47.42;28.67;;;;;;;6.46;100.00;96298.91;4978048;28;20025;-66
2022/03/18 00:25:10;;;;;;;46.00;28.45;;;;;;;6.45;100.00;96301.78;4977923;28;20023;-66
2022/03/18 00:27:36;;;;;;;43.17;26.98;;;;;;;6.44;100.00;96308.16;4994221;28;20026;-66
2022/03/18 00:30:03;;;;;;;47.42;28.65;;;;;;;6.43;100.00;96309.19;4995525;28;20026;-66
2022/03/18 00:32:29;;;;;;;43.92;27.10;;;;;;;6.44;100.00;96310.81;4995641;28;20026;-66
2022/03/18 00:34:58;;;;;;;43.05;26.92;;;;;;;6.43;100.00;96311.84;4995132;28;20050;-66
2022/03/18 00:37:26;;;;;;;45.42;26.65;;;;;;;6.41;100.00;96316.56;4977985;28;20029;-66
2022/03/18 00:39:52;;;;;;;43.90;27.15;;;;;;;6.41;100.00;96311.22;4994783;28;20489;-66
2022/03/18 00:42:21;;;;;;;43.22;26.33;;;;;;;6.39;100.00;96314.88;4995155;28;20030;-66
2022/03/18 00:44:49;;;;;;;41.05;25.25;;;;;;;6.41;100.00;96320.03;4977411;28;20378;-66
2022/03/18 00:52:42;;;;;;;42.22;26.45;;;;;;;6.35;100.00;96324.31;4995151;28;20142;-66
2022/03/18 00:55:08;;;;;;;41.70;24.67;;;;;;;6.34;100.00;96324.53;4994722;28;20473;-66
2022/03/18 00:57:49;;;;;;;41.05;26.30;;;;;;;6.33;100.00;96328.22;4994506;28;20033;-66
2022/03/18 01:00:21;;;;;;;39.33;24.02;;;;;;;6.32;100.00;96326.59;4977343;28;20057;-66
2022/03/18 01:02:46;;;;;;;44.25;26.98;;;;;;;6.31;100.00;96333.75;4994668;28;20026;-66
2022/03/18 01:05:12;;;;;;;43.33;25.40;;;;;;;6.26;100.00;96328.22;4994558;28;20028;-66
2022/03/18 01:07:40;;;;;;;42.63;26.05;;;;;;;6.26;100.00;96328.22;4977187;28;20105;-66
2022/03/18 01:10:07;;;;;;;42.58;26.00;;;;;;;6.25;100.00;96331.91;4994514;28;20489;-66
2022/03/18 01:12:35;;;;;;;38.50;23.50;;;;;;;6.26;100.00;96332.72;4977095;28;20124;-66
2022/03/18 01:15:04;;;;;;;40.67;25.13;;;;;;;6.20;100.00;96328.25;4976870;28;20033;-66
2022/03/18 01:17:33;;;;;;;43.03;25.90;;;;;;;6.15;100.00;96317.41;4994287;28;20050;-66
2022/03/18 01:20:03;;;;;;;43.75;26.45;;;;;;;6.14;100.00;96324.56;4976925;28;20097;-66
2022/03/18 01:22:31;;;;;;;43.03;25.25;;;;;;;6.12;100.00;96339.09;4994020;28;20084;-66
2022/03/18 01:24:59;;;;;;;43.78;25.83;;;;;;;6.04;100.00;96330.28;4994197;28;20101;-66
2022/03/18 01:27:27;;;;;;;40.78;25.35;;;;;;;6.04;100.00;96348.09;4994187;28;20014;-66
2022/03/18 01:29:52;;;;;;;44.42;25.10;;;;;;;5.96;100.00;96345.63;4994106;28;20417;-66
2022/03/18 01:32:21;;;;;;;40.72;24.23;;;;;;;5.91;100.00;96342.78;4994211;28;20033;-66
2022/03/18 01:34:46;;;;;;;39.45;24.40;;;;;;;5.88;100.00;96356.47;4993664;28;20054;-66
2022/03/18 01:37:24;;;;;;;41.15;24.65;;;;;;;5.82;100.00;96355.44;4976441;28;20508;-66
2022/03/18 01:39:49;;;;;;;42.42;25.58;;;;;;;5.77;100.00;96360.56;4992293;28;20056;-66
2022/03/18 01:42:14;;;;;;;41.45;24.45;;;;;;;5.74;100.00;96363.59;5009248;28;20053;-66
2022/03/18 01:44:41;;;;;;;40.35;24.95;;;;;;;5.70;100.00;96376.47;5003454;28;20034;-66
2022/03/18 01:47:16;;;;;;;38.65;23.80;;;;;;;5.69;100.00;96380.16;5012744;28;20503;-66
2022/03/18 01:49:42;;;;;;;41.47;25.17;;;;;;;5.67;100.00;96394.69;5000176;28;20025;-66
2022/03/18 01:52:14;;;;;;;41.50;24.20;;;;;;;5.63;100.00;96393.44;5012553;28;20068;-66
2022/03/18 01:54:47;;;;;;;40.03;24.90;;;;;;;5.56;100.00;96398.75;4994544;28;20083;-66
2022/03/18 01:57:18;;;;;;;37.10;23.25;;;;;;;5.54;100.00;96414.09;4993577;28;20061;-66
2022/03/18 01:59:45;;;;;;;42.33;25.08;;;;;;;5.49;100.00;96401.38;4976200;28;20022;-66
2022/03/18 02:02:15;;;;;;;42.72;25.73;;;;;;;5.45;100.00;96416.09;4993415;28;20031;-66
2022/03/18 02:04:46;;;;;;;41.28;25.63;;;;;;;5.44;100.00;96413.66;4993509;28;20029;-66
2022/03/18 02:07:15;;;;;;;41.72;24.95;;;;;;;5.41;100.00;96422.00;4975837;28;20030;-66
2022/03/18 02:09:42;;;;;;;44.80;24.55;;;;;;;5.38;100.00;96420.56;4993461;28;20144;-65
2022/03/18 02:12:09;;;;;;;41.45;26.08;;;;;;;5.34;100.00;96418.53;4993410;28;20018;-65
2022/03/18 02:14:46;;;;;;;42.95;26.13;;;;;;;5.33;100.00;96424.84;4993076;28;20033;-65
2022/03/18 02:17:14;;;;;;;44.30;26.67;;;;;;;5.33;100.00;96424.84;4993289;28;20113;-65
2022/03/18 02:19:41;;;;;;;44.70;27.05;;;;;;;5.31;100.00;96426.88;4993164;28;20034;-65
2022/03/18 02:22:21;;;;;;;43.25;25.85;;;;;;;5.26;100.00;96424.81;4993244;28;20108;-66
2022/03/18 02:24:48;;;;;;;49.40;29.45;;;;;;;5.25;100.00;96423.19;5006714;28;20033;-66
2022/03/18 02:27:14;;;;;;;46.17;29.17;;;;;;;5.25;100.00;96415.22;5012715;28;20103;-66
2022/03/18 02:29:40;;;;;;;45.08;28.75;;;;;;;5.23;100.00;96411.94;5012742;28;20022;-66
2022/03/18 02:32:07;;;;;;;52.08;30.00;;;;;;;5.22;100.00;96412.97;5012749;28;20030;-66
2022/03/18 02:34:34;;;;;;;46.85;29.15;;;;;;;5.20;100.00;96407.81;4991410;28;20046;-66
2022/03/18 02:37:03;;;;;;;49.78;29.50;;;;;;;5.20;100.00;96396.38;4993074;28;20508;-66
2022/03/18 02:39:28;;;;;;;48.53;29.75;;;;;;;5.18;100.00;96393.09;4991643;28;20102;-66
2022/03/18 02:41:56;;;;;;;50.22;30.50;;;;;;;5.16;100.00;96389.84;4993012;28;20107;-66
2022/03/18 02:44:22;;;;;;;50.75;29.48;;;;;;;5.16;100.00;96387.19;4992893;28;20037;-66
2022/03/18 02:46:48;;;;;;;53.35;31.80;;;;;;;5.13;100.00;96384.94;4991740;28;20029;-67
2022/03/18 02:49:24;;;;;;;51.30;32.00;;;;;;;5.13;100.00;96377.78;4992974;28;20399;-66
2022/03/18 02:51:49;;;;;;;53.50;32.08;;;;;;;5.14;100.00;96370.63;4963249;28;20375;-67
2022/03/18 02:54:22;;;;;;;56.10;32.35;;;;;;;5.12;100.00;96370.84;4972522;28;20246;-67
2022/03/18 02:56:50;;;;;;;56.50;33.53;;;;;;;5.12;100.00;96362.06;4988244;28;20031;-67
2022/03/18 02:59:16;;;;;;;53.53;31.63;;;;;;;5.07;100.00;96354.66;4973506;28;20449;-67
2022/03/18 03:01:42;;;;;;;55.53;34.25;;;;;;;5.08;100.00;96350.97;4973621;28;20054;-67
2022/03/18 03:04:07;;;;;;;59.42;34.67;;;;;;;5.09;100.00;96346.50;4977327;28;20101;-67
2022/03/18 03:09:19;;;;;;;57.63;35.05;;;;;;;5.06;100.00;96338.94;4977337;28;20037;-67
2022/03/18 03:11:45;;;;;;;58.88;34.70;;;;;;;5.03;100.00;96348.13;4977206;28;20074;-67
2022/03/18 03:14:14;;;;;;;57.03;34.22;;;;;;;5.03;100.00;96352.63;4976358;28;20426;-67
2022/03/18 03:16:48;;;;;;;56.65;35.47;;;;;;;5.02;100.00;96343.84;4977233;28;20027;-66
2022/03/18 03:19:17;;;;;;;60.63;34.88;;;;;;;5.01;100.00;96330.75;4975818;28;20022;-66
2022/03/18 03:21:45;;;;;;;60.42;36.33;;;;;;;5.01;100.00;96334.22;4977127;28;20033;-66
2022/03/18 03:24:14;;;;;;;61.00;34.85;;;;;;;5.02;100.00;96343.00;4982553;28;20029;-66
2022/03/18 03:26:42;;;;;;;59.70;35.45;;;;;;;5.01;100.00;96341.38;4981283;28;20541;-66
2022/03/18 03:29:08;;;;;;;63.17;35.20;;;;;;;4.99;100.00;96333.59;4977424;28;20026;-66
2022/03/18 03:31:33;;;;;;;61.97;36.72;;;;;;;4.99;100.00;96336.25;4975410;28;20398;-66
2022/03/18 03:33:59;;;;;;;57.05;34.13;;;;;;;4.98;100.00;96328.47;4975410;28;20054;-66
2022/03/18 03:36:24;;;;;;;58.67;34.92;;;;;;;4.97;100.00;96335.63;4975263;28;20033;-66
2022/03/18 03:38:55;;;;;;;60.58;37.53;;;;;;;4.95;100.00;96330.53;4976766;28;20454;-66
2022/03/18 03:41:24;;;;;;;60.67;35.28;;;;;;;4.94;100.00;96328.88;4975800;28;20089;-66
2022/03/18 03:43:50;;;;;;;63.30;37.47;;;;;;;4.92;100.00;96322.97;4976620;28;20019;-66
2022/03/18 03:46:16;;;;;;;63.25;36.95;;;;;;;4.93;100.00;96326.44;4975222;28;20076;-66
2022/03/18 03:48:41;;;;;;;61.25;36.10;;;;;;;4.92;100.00;96330.94;4976630;28;20540;-66
2022/03/18 03:51:06;;;;;;;66.93;35.80;;;;;;;4.92;100.00;96324.78;4975162;28;20023;-66
2022/03/18 03:53:32;;;;;;;62.30;37.75;;;;;;;4.93;100.00;96323.78;4975096;28;20022;-66
2022/03/18 03:55:57;;;;;;;61.20;36.20;;;;;;;4.94;100.00;96320.91;4975181;28;20023;-67
2022/03/18 03:58:26;;;;;;;61.53;36.05;;;;;;;4.91;100.00;96321.31;4975040;28;20405;-66
2022/03/18 04:00:51;;;;;;;57.22;34.65;;;;;;;4.88;100.00;96321.72;4976200;28;20026;-66
2022/03/18 04:03:16;;;;;;;62.40;35.92;;;;;;;4.89;100.00;96330.50;4976311;28;20106;-67
2022/03/18 04:05:45;;;;;;;64.22;37.15;;;;;;;4.89;100.00;96325.22;4976199;28;20030;-67
2022/03/18 04:08:13;;;;;;;60.58;35.35;;;;;;;4.88;100.00;96334.16;4976204;28;20031;-66
2022/03/18 04:10:42;;;;;;;58.67;35.72;;;;;;;4.89;100.00;96331.34;4976174;28;20509;-66
2022/03/18 04:13:10;;;;;;;61.97;36.83;;;;;;;4.88;100.00;96340.31;4975965;28;20029;-66
2022/03/18 04:15:35;;;;;;;61.47;36.25;;;;;;;4.88;100.00;96334.16;4974074;28;20031;-66
2022/03/18 04:18:01;;;;;;;62.42;37.40;;;;;;;4.86;100.00;96336.19;4976102;28;20019;-66
2022/03/18 04:20:33;;;;;;;63.95;36.90;;;;;;;4.86;100.00;96333.53;4974711;28;20030;-66
2022/03/18 04:22:59;;;;;;;64.53;36.33;;;;;;;4.83;100.00;96331.28;4976099;28;20037;-66
2022/03/18 04:25:27;;;;;;;60.75;36.00;;;;;;;4.81;100.00;96328.84;4975915;28;20468;-66
2022/03/18 04:27:53;;;;;;;63.25;37.28;;;;;;;4.79;100.00;96330.06;4975657;28;20030;-66
2022/03/18 04:30:19;;;;;;;60.47;35.47;;;;;;;4.78;100.00;96339.88;4974536;28;20023;-66
2022/03/18 04:32:44;;;;;;;62.15;36.67;;;;;;;4.77;100.00;96334.72;4975730;28;20031;-66
2022/03/18 04:35:16;;;;;;;61.10;37.25;;;;;;;4.77;100.00;96346.16;4989491;28;20046;-66
2022/03/18 04:37:42;;;;;;;64.25;37.28;;;;;;;4.75;100.00;96340.22;4995046;28;20018;-66
2022/03/18 04:40:09;;;;;;;60.08;35.25;;;;;;;4.75;100.00;96342.88;4995096;28;20026;-66
2022/03/18 04:42:35;;;;;;;65.93;38.25;;;;;;;4.73;100.00;96350.25;4994749;28;20128;-66
2022/03/18 04:45:04;;;;;;;65.47;36.47;;;;;;;4.75;100.00;96345.53;4995038;28;20062;-67
2022/03/18 04:47:30;;;;;;;60.25;34.95;;;;;;;4.74;100.00;96337.78;4994913;28;20018;-66
2022/03/18 04:49:56;;;;;;;59.40;36.35;;;;;;;4.72;100.00;96334.50;4977461;28;20117;-66
2022/03/18 04:52:24;;;;;;;59.53;36.63;;;;;;;4.72;100.00;96337.16;4993627;28;20600;-66
2022/03/18 04:54:53;;;;;;;61.75;36.25;;;;;;;4.69;100.00;96333.09;4994707;28;20113;-66
2022/03/18 04:57:18;;;;;;;61.58;34.67;;;;;;;4.65;100.00;96332.63;4994670;28;20500;-66
2022/03/18 04:59:46;;;;;;;63.75;36.13;;;;;;;4.67;100.00;96340.44;4994840;28;20030;-66
2022/03/18 05:02:12;;;;;;;58.67;35.22;;;;;;;4.64;100.00;96328.34;4977183;28;20023;-66
2022/03/18 05:04:44;;;;;;;59.30;35.10;;;;;;;4.65;100.00;96331.81;4994652;28;20492;-66
2022/03/18 05:07:11;;;;;;;64.60;37.03;;;;;;;4.66;100.00;96336.09;4994585;28;20030;-66
2022/03/18 05:09:40;;;;;;;64.32;35.60;;;;;;;4.63;100.00;96329.38;4994419;28;20026;-66
2022/03/18 05:12:11;;;;;;;61.15;35.83;;;;;;;4.62;100.00;96335.69;4994536;28;20065;-66
2022/03/18 05:14:38;;;;;;;61.50;36.80;;;;;;;4.63;100.00;96332.03;4976962;28;20034;-66
2022/03/18 05:17:04;;;;;;;57.58;34.60;;;;;;;4.60;100.00;96337.72;4994374;28;20069;-66
2022/03/18 05:19:30;;;;;;;61.22;35.83;;;;;;;4.62;100.00;96334.88;4994375;28;20054;-66
2022/03/18 05:21:56;;;;;;;59.08;35.65;;;;;;;4.62;100.00;96341.00;4994204;28;20034;-66
2022/03/18 05:24:22;;;;;;;63.03;36.22;;;;;;;4.63;100.00;96341.81;4976751;28;20406;-66
2022/03/18 05:26:47;;;;;;;60.00;33.92;;;;;;;4.62;100.00;96338.34;4993195;28;20022;-66
2022/03/18 05:29:14;;;;;;;64.13;35.95;;;;;;;4.61;100.00;96335.91;4976851;28;20473;-66
2022/03/18 05:31:40;;;;;;;67.50;37.00;;;;;;;4.61;100.00;96333.25;4994136;28;20025;-66
2022/03/18 05:34:05;;;;;;;63.00;36.05;;;;;;;4.61;100.00;96328.75;4992861;28;20510;-66
2022/03/18 05:36:31;;;;;;;63.28;37.22;;;;;;;4.61;100.00;96330.59;4994367;28;20038;-64
2022/03/18 05:38:56;;;;;;;63.35;36.20;;;;;;;4.62;100.00;96332.22;4994049;28;20030;-64
2022/03/18 05:41:25;;;;;;;64.32;36.38;;;;;;;4.61;100.00;96336.72;4994023;28;20025;-60
2022/03/18 05:43:50;;;;;;;63.20;35.67;;;;;;;4.63;100.00;96332.03;4994078;28;20033;-64
2022/03/18 05:46:16;;;;;;;66.80;37.22;;;;;;;4.63;100.00;96325.91;4993955;28;20022;-63
2022/03/18 05:48:44;;;;;;;63.30;36.25;;;;;;;4.64;100.00;96331.00;4993879;28;20098;-64
2022/03/18 05:51:10;;;;;;;64.18;35.90;;;;;;;4.65;100.00;96327.31;4993549;28;20026;-62
2022/03/18 05:53:35;;;;;;;62.92;35.47;;;;;;;4.68;100.00;96325.31;4993602;28;20069;-64
2022/03/18 05:58:44;;;;;;;63.33;36.40;;;;;;;4.64;100.00;96323.03;4993913;28;20041;-63
2022/03/18 06:01:16;;;;;;;61.42;37.17;;;;;;;4.68;100.00;96322.66;4976215;28;20121;-63
2022/03/18 06:03:41;;;;;;;59.22;35.15;;;;;;;4.68;100.00;96328.78;4993269;28;20549;-67
2022/03/18 06:06:07;;;;;;;56.83;33.75;;;;;;;4.68;100.00;96328.78;4993598;28;20105;-63
2022/03/18 06:11:51;;;;;;;60.55;34.45;;;;;;;4.71;100.00;96324.91;4993549;28;20405;-63
2022/03/18 06:14:22;;;;;;;57.50;35.13;;;;;;;4.70;100.00;96318.78;4975807;28;20409;-63
2022/03/18 06:16:52;;;;;;;60.50;35.28;;;;;;;4.71;100.00;96316.97;4975921;28;20555;-63
2022/03/18 06:19:28;;;;;;;62.40;36.13;;;;;;;4.74;100.00;96316.56;4993317;28;20038;-64
2022/03/18 06:21:57;;;;;;;58.92;34.95;;;;;;;4.73;100.00;96320.22;4989731;28;20080;-63
2022/03/18 06:24:23;;;;;;;64.05;36.63;;;;;;;4.72;100.00;96313.28;4988692;28;20109;-63
2022/03/18 06:26:50;;;;;;;58.10;33.95;;;;;;;4.75;100.00;96323.50;5006450;28;20104;-67
2022/03/18 06:29:15;;;;;;;58.28;34.72;;;;;;;4.75;100.00;96312.88;4985751;28;20073;-64
2022/03/18 06:31:41;;;;;;;55.67;33.67;;;;;;;4.76;100.00;96320.63;4991281;28;20470;-63
2022/03/18 06:34:08;;;;;;;57.80;34.42;;;;;;;4.75;100.00;96324.31;4994544;28;20794;-63
2022/03/18 06:36:34;;;;;;;62.60;35.25;;;;;;;4.77;100.00;96324.94;4978630;28;20088;-64
2022/03/18 06:39:00;;;;;;;60.17;34.33;;;;;;;4.79;100.00;96324.75;4976952;28;20094;-64
2022/03/18 06:41:26;;;;;;;55.75;33.72;;;;;;;4.81;100.00;96326.19;4995259;28;20485;-64
2022/03/18 06:43:55;;;;;;;63.00;34.80;;;;;;;4.81;100.00;96331.50;5001305;28;20095;-70
2022/03/18 06:46:21;;;;;;;58.65;33.63;;;;;;;4.82;100.00;96327.00;4987551;28;20100;-63
2022/03/18 06:48:53;;;;;;;57.30;34.55;;;;;;;4.85;100.00;96331.91;4991088;28;20046;-63
2022/03/18 06:51:18;;;;;;;58.00;33.90;;;;;;;4.86;100.00;96344.97;4989414;28;20072;-65
2022/03/18 06:53:43;;;;;;;55.53;34.22;;;;;;;4.91;100.00;96347.06;4988422;28;20025;-63
2022/03/18 06:56:12;;;;;;;60.85;34.30;;;;;;;4.90;100.00;96345.44;4993327;28;20022;-65
2022/03/18 06:58:38;;;;;;;59.58;34.53;;;;;;;4.91;100.00;96352.38;4987161;28;20029;-65
2022/03/18 07:01:06;;;;;;;58.58;33.95;;;;;;;4.92;100.00;96360.13;4989129;28;20030;-65
2022/03/18 07:03:32;;;;;;;59.15;35.10;;;;;;;4.95;100.00;96351.75;4991577;28;20394;-72
2022/03/18 07:05:57;;;;;;;54.65;34.42;;;;;;;4.97;100.00;96353.41;4966797;28;20485;-65
2022/03/18 07:08:23;;;;;;;57.60;35.30;;;;;;;4.98;100.00;96355.84;4991908;28;20057;-65
2022/03/18 07:10:48;;;;;;;57.20;34.30;;;;;;;5.00;100.00;96353.84;4991920;28;20065;-67
2022/03/18 07:13:15;;;;;;;56.30;33.28;;;;;;;5.02;100.00;96356.28;4986880;28;20546;-69
2022/03/18 07:15:43;;;;;;;57.92;35.22;;;;;;;5.02;100.00;96357.09;4989266;28;20057;-65
2022/03/18 07:18:27;;;;;;;55.75;32.30;;;;;;;5.00;100.00;96359.16;4991616;28;20018;-64
2022/03/18 07:20:59;;;;;;;57.60;34.25;;;;;;;5.04;100.00;96364.88;4992591;28;20046;-64
2022/03/18 07:23:24;;;;;;;62.67;34.78;;;;;;;5.08;100.00;96372.22;4992478;28;20036;-64
2022/03/18 07:25:51;;;;;;;63.40;35.13;;;;;;;5.08;100.00;96366.09;4975081;28;20026;-65
2022/03/18 07:28:22;;;;;;;58.97;32.85;;;;;;;5.10;100.00;96372.03;4975062;28;20490;-63
2022/03/18 07:30:51;;;;;;;59.08;33.90;;;;;;;5.09;100.00;96375.69;4992595;28;20394;-64
2022/03/18 07:33:16;;;;;;;54.42;33.90;;;;;;;5.15;100.00;96378.41;4992349;28;20026;-64
2022/03/18 07:35:42;;;;;;;54.10;33.80;;;;;;;5.16;100.00;96380.03;4974797;28;20053;-64
2022/03/18 07:38:09;;;;;;;55.55;34.15;;;;;;;5.17;100.00;96379.00;4992437;28;20404;-65
2022/03/18 07:40:35;;;;;;;55.05;33.50;;;;;;;5.21;100.00;96385.56;4992470;28;20481;-64
2022/03/18 07:43:05;;;;;;;56.78;33.38;;;;;;;5.23;100.00;96378.22;4974987;28;20038;-65
2022/03/18 07:45:35;;;;;;;58.88;34.38;;;;;;;5.28;100.00;96382.94;4992527;28;20029;-64
2022/03/18 07:48:03;;;;;;;58.15;34.30;;;;;;;5.29;100.00;96383.75;4974919;28;20176;-64
2022/03/18 07:50:31;;;;;;;57.45;35.05;;;;;;;5.32;100.00;96388.66;4995278;28;20022;-64
2022/03/18 07:52:59;;;;;;;58.63;35.03;;;;;;;5.32;100.00;96386.84;4995818;28;20030;-65
2022/03/18 07:55:27;;;;;;;58.88;35.45;;;;;;;5.38;100.00;96388.69;4995926;28;20394;-65
2022/03/18 07:57:54;;;;;;;58.90;34.28;;;;;;;5.35;100.00;96388.28;4978327;28;20393;-64
2022/03/18 08:00:20;;;;;;;58.00;34.30;;;;;;;5.40;100.00;96391.13;4995664;28;20023;-65
2022/03/18 08:02:47;;;;;;;58.35;34.65;;;;;;;5.44;100.00;96389.72;4992360;28;20037;-63
2022/03/18 08:05:13;;;;;;;54.58;34.25;;;;;;;5.49;100.00;96395.25;4993044;28;20049;-63
2022/03/18 08:07:39;;;;;;;60.05;36.13;;;;;;;5.50;100.00;96404.84;5002154;28;20026;-64
2022/03/18 08:10:09;;;;;;;63.60;35.90;;;;;;;5.55;100.00;96398.97;4995237;28;20097;-65
2022/03/18 08:12:42;;;;;;;59.78;36.47;;;;;;;5.54;100.00;96395.47;4978107;28;20050;-65
2022/03/18 08:15:10;;;;;;;60.28;36.00;;;;;;;5.57;100.00;96400.38;4995055;28;20054;-65
2022/03/18 08:17:42;;;;;;;61.85;36.85;;;;;;;5.60;100.00;96407.13;4978275;28;20567;-64
2022/03/18 08:20:09;;;;;;;61.42;36.53;;;;;;;5.62;100.00;96405.09;4995418;28;20037;-64
2022/03/18 08:22:35;;;;;;;58.67;34.53;;;;;;;5.66;100.00;96414.31;4977960;28;20036;-64
2022/03/18 08:25:05;;;;;;;60.58;36.13;;;;;;;5.62;100.00;96411.22;4995369;28;20030;-64
2022/03/18 08:27:32;;;;;;;63.60;37.88;;;;;;;5.61;100.00;96409.59;4995227;28;20022;-64
2022/03/18 08:29:59;;;;;;;59.88;36.65;;;;;;;5.63;100.00;96407.53;4995279;28;20101;-64
2022/03/18 08:32:26;;;;;;;59.05;35.80;;;;;;;5.69;100.00;96417.38;4995387;28;20359;-64
2022/03/18 08:34:52;;;;;;;60.50;36.05;;;;;;;5.67;100.00;96406.13;4974414;28;20585;-64
2022/03/18 08:40:05;;;;;;;63.92;37.63;;;;;;;5.67;100.00;96422.09;4975715;28;20046;-64
2022/03/18 08:42:34;;;;;;;59.63;35.22;;;;;;;5.63;100.00;96418.16;4975684;28;20026;-63
2022/03/18 08:45:04;;;;;;;61.40;37.35;;;;;;;5.68;100.00;96409.63;4975578;28;20038;-63
2022/03/18 08:47:33;;;;;;;60.25;36.13;;;;;;;5.67;100.00;96422.09;4975585;28;20058;-62
2022/03/18 08:50:12;;;;;;;65.78;37.65;;;;;;;5.73;100.00;96410.63;4975592;28;20026;-62
2022/03/18 08:52:37;;;;;;;59.95;36.17;;;;;;;5.75;100.00;96407.75;4975302;28;20034;-61
2022/03/18 08:55:04;;;;;;;58.95;36.65;;;;;;;5.76;100.00;96412.91;4975467;28;20494;-61
2022/03/18 08:57:36;;;;;;;61.78;37.65;;;;;;;5.77;100.00;96414.53;4975313;28;20031;-63
2022/03/18 09:00:05;;;;;;;67.72;36.92;;;;;;;5.74;100.00;96419.41;4975515;28;20054;-63
2022/03/18 09:02:38;;;;;;;65.55;37.95;;;;;;;5.82;100.00;96425.38;4975366;28;20105;-61
2022/03/18 09:05:10;;;;;;;63.92;37.53;;;;;;;5.88;100.00;96420.28;4975183;28;20385;-63
2022/03/18 09:07:40;;;;;;;65.07;37.10;;;;;;;6.00;100.00;96424.81;4973985;28;20034;-63
2022/03/18 09:10:07;;;;;;;65.30;38.38;;;;;;;5.98;100.00;96426.06;4975206;28;20410;-63
2022/03/18 09:12:33;;;;;;;64.32;37.55;;;;;;;6.03;100.00;96428.91;4975356;28;20027;-63
2022/03/18 09:14:59;;;;;;;65.20;38.38;;;;;;;6.09;100.00;96428.13;4990183;28;20031;-62
2022/03/18 09:17:25;;;;;;;67.32;40.25;;;;;;;6.05;100.00;96421.53;4974911;28;20030;-63
2022/03/18 09:19:56;;;;;;;67.15;38.97;;;;;;;6.08;100.00;96415.84;4975022;28;20106;-63
2022/03/18 09:22:21;;;;;;;70.95;39.42;;;;;;;6.06;100.00;96418.69;4974991;28;20386;-60
2022/03/18 09:24:50;;;;;;;66.18;40.00;;;;;;;6.07;100.00;96422.16;4974737;28;20026;-62
2022/03/18 09:27:16;;;;;;;69.25;40.17;;;;;;;5.99;100.00;96417.88;4974890;28;20034;-60
2022/03/18 09:29:42;;;;;;;63.72;36.90;;;;;;;6.03;100.00;96408.47;4973339;28;20030;-62
2022/03/18 09:32:08;;;;;;;67.60;40.25;;;;;;;6.07;100.00;96408.84;4974602;28;20042;-61
2022/03/18 09:34:36;;;;;;;60.58;36.55;;;;;;;6.08;100.00;96413.19;4980235;28;20057;-63
2022/03/18 09:37:02;;;;;;;69.30;40.03;;;;;;;6.12;100.00;96409.09;4994007;28;20085;-63
2022/03/18 09:39:28;;;;;;;60.45;36.30;;;;;;;6.19;100.00;96414.41;4994006;28;20062;-64
2022/03/18 09:41:55;;;;;;;63.47;39.08;;;;;;;6.30;100.00;96406.63;4976952;28;20074;-64
2022/03/18 09:44:21;;;;;;;62.58;37.28;;;;;;;6.35;100.00;96401.50;4976315;28;20121;-64
2022/03/18 09:46:48;;;;;;;68.07;39.35;;;;;;;6.44;100.00;96409.28;4994053;28;20028;-64
2022/03/18 09:49:16;;;;;;;60.92;38.30;;;;;;;6.50;100.00;96403.94;4993803;28;20036;-64
2022/03/18 09:51:48;;;;;;;56.70;34.47;;;;;;;6.57;100.00;96407.41;4993683;28;20105;-63
2022/03/18 09:54:17;;;;;;;62.88;37.50;;;;;;;6.63;100.00;96397.78;4993691;28;20049;-63
2022/03/18 09:56:45;;;;;;;66.20;36.92;;;;;;;6.72;100.00;96390.38;4976245;28;20110;-62
2022/03/18 09:59:11;;;;;;;56.20;32.33;;;;;;;6.63;100.00;96390.63;4993463;28;20041;-64
2022/03/18 10:01:37;;;;;;;60.20;35.17;;;;;;;6.76;100.00;96391.63;4993612;28;20030;-62
2022/03/18 10:04:15;;;;;;;63.03;35.35;;;;;;;6.69;100.00;96379.13;4993492;28;20116;-63
2022/03/18 10:06:42;;;;;;;64.30;38.25;;;;;;;6.85;100.00;96380.53;4976158;28;20022;-65
2022/03/18 10:09:27;;;;;;;61.45;35.80;;;;;;;7.00;100.00;96371.47;4993410;28;20030;-64
2022/03/18 10:11:53;;;;;;;61.63;35.33;;;;;;;7.09;100.00;96354.22;4992796;28;20453;-64
2022/03/18 10:14:25;;;;;;;54.83;29.55;;;;;;;6.97;100.00;96354.88;4993318;28;20033;-64
2022/03/18 10:17:02;;;;;;;53.88;32.17;;;;;;;7.03;100.00;96349.72;4975829;28;20031;-64
2022/03/18 10:19:27;;;;;;;58.03;34.95;;;;;;;7.09;100.00;96339.03;4993498;28;20030;-64
2022/03/18 10:21:58;;;;;;;55.00;32.28;;;;;;;7.20;100.00;96318.91;4992927;28;20113;-64
2022/03/18 10:24:30;;;;;;;62.85;34.50;;;;;;;7.23;100.00;96311.28;4992381;28;20026;-64
2022/03/18 10:27:15;;;;;;;60.55;35.47;;;;;;;7.28;100.00;96310.66;4992372;28;20105;-64
2022/03/18 10:29:55;;;;;;;50.85;28.05;;;;;;;7.30;100.00;96307.78;4992870;28;20430;-65
2022/03/18 10:32:22;;;;;;;60.47;35.15;;;;;;;7.31;100.00;96310.22;4974301;28;20030;-64
2022/03/18 10:37:51;;;;;;;62.40;35.28;;;;;;;7.26;100.00;96292.19;4993149;28;20099;-64
2022/03/18 10:40:38;;;;;;;58.53;34.00;;;;;;;7.36;100.00;96293.59;4991614;28;20022;-64
2022/03/18 10:43:06;;;;;;;59.63;34.17;;;;;;;7.43;100.00;96289.84;4991882;28;20030;-66
2022/03/18 10:45:32;;;;;;;56.05;35.28;;;;;;;7.49;100.00;96280.19;4992556;28;20432;-64
2022/03/18 10:48:14;;;;;;;59.88;34.60;;;;;;;7.33;100.00;96264.72;4992045;28;20022;-65
2022/03/18 10:50:40;;;;;;;56.40;33.90;;;;;;;7.32;100.00;96265.75;4973437;28;20033;-64
2022/03/18 10:53:11;;;;;;;56.22;32.88;;;;;;;7.33;100.00;96262.03;4974119;28;20034;-62
2022/03/18 10:55:45;;;;;;;54.40;32.50;;;;;;;7.24;100.00;96245.50;4992317;28;20034;-64
2022/03/18 10:58:16;;;;;;;57.60;33.63;;;;;;;7.40;100.00;96249.50;4992651;28;20031;-64
2022/03/18 11:00:50;;;;;;;56.85;32.90;;;;;;;7.35;100.00;96244.78;4974690;28;20129;-62
2022/03/18 11:03:16;;;;;;;54.75;31.25;;;;;;;7.42;100.00;96236.75;4975087;28;20390;-63
2022/03/18 11:05:47;;;;;;;56.00;33.20;;;;;;;7.52;100.00;96245.09;4992612;28;20027;-64
2022/03/18 11:08:21;;;;;;;54.17;31.77;;;;;;;7.64;100.00;96240.69;4975372;28;20417;-63
2022/03/18 11:11:07;;;;;;;59.60;33.80;;;;;;;7.73;100.00;96234.06;4992606;28;20089;-64
2022/03/18 11:13:39;;;;;;;57.15;32.25;;;;;;;7.76;100.00;96228.28;4992592;28;20097;-63
2022/03/18 11:16:06;;;;;;;57.15;33.38;;;;;;;7.89;100.00;96235.31;4992624;28;20037;-62
2022/03/18 11:18:36;;;;;;;58.25;33.00;;;;;;;8.04;100.00;96235.00;4974998;28;20080;-63
2022/03/18 11:21:06;;;;;;;59.78;34.13;;;;;;;8.00;100.00;96228.47;4992776;28;20027;-63
2022/03/18 11:23:37;;;;;;;55.00;32.58;;;;;;;7.97;100.00;96236.91;4996962;28;20026;-64
2022/03/18 11:26:07;;;;;;;54.45;33.55;;;;;;;7.90;100.00;96228.97;5016210;28;20022;-63
2022/03/18 11:28:32;;;;;;;52.60;31.20;;;;;;;7.90;100.00;96231.63;4998362;28;20485;-64
2022/03/18 11:31:06;;;;;;;56.75;32.15;;;;;;;8.02;100.00;96227.19;5014605;28;20036;-64
2022/03/18 11:33:34;;;;;;;54.17;31.75;;;;;;;8.11;100.00;96238.41;5015760;28;20389;-64
2022/03/18 11:36:12;;;;;;;51.08;30.73;;;;;;;8.21;100.00;96229.88;5032684;23;20089;-66
2022/03/18 11:38:59;;;;;;;56.33;32.08;;;;;;;8.29;100.00;96230.41;5013057;28;20037;-66
2022/03/18 11:41:27;;;;;;;43.10;25.40;;;;;;;8.33;100.00;96228.91;5015522;28;20553;-65